Time;durP1;ratioP1;P1;durP2;ratioP2;P2;SDS_P1;SDS_P2;PMS_P1;PMS_P2;Temp;Humidity;BMP_temperature;BMP_pressure;BME280_temperature;BME280_humidity;BME280_pressure;Samples;Min_cycle;Max_cycle;Signal;HPM_P1;HPM_P2
2022/10/20 00:01:16;;;;;;;13.83;3.30;;;20.80;99.90;;;;;;5081197;28;20231;-70
2022/10/20 00:03:44;;;;;;;8.57;3.43;;;21.20;99.90;;;;;;5091416;28;20188;-69
2022/10/20 00:06:14;;;;;;;7.57;3.33;;;21.30;99.90;;;;;;5085388;28;20183;-70
2022/10/20 00:08:42;;;;;;;12.67;2.80;;;21.40;99.90;;;;;;5073919;28;20188;-69
2022/10/20 00:11:11;;;;;;;6.80;2.40;;;21.40;99.90;;;;;;5092549;28;20181;-71
2022/10/20 00:13:40;;;;;;;12.13;2.90;;;21.50;99.90;;;;;;5072667;28;20195;-69
2022/10/20 00:16:08;;;;;;;9.40;2.50;;;21.50;99.90;;;;;;5072470;28;20224;-69
2022/10/20 00:18:36;;;;;;;6.03;2.07;;;21.50;99.90;;;;;;5072709;28;20226;-71
2022/10/20 00:21:29;;;;;;;7.03;3.00;;;21.60;99.90;;;;;;5092633;28;20747;-71
2022/10/20 00:24:00;;;;;;;6.27;2.30;;;21.70;99.90;;;;;;5069414;28;20226;-72
2022/10/20 00:26:29;;;;;;;7.07;2.10;;;21.80;99.90;;;;;;5054522;28;20537;-71
2022/10/20 00:28:57;;;;;;;8.73;2.13;;;21.80;99.90;;;;;;5075398;28;20197;-70
2022/10/20 00:31:25;;;;;;;5.83;2.10;;;21.90;99.90;;;;;;5092470;28;20549;-70
2022/10/20 00:33:53;;;;;;;7.50;2.37;;;22.00;99.90;;;;;;5091580;28;20710;-70
2022/10/20 00:36:22;;;;;;;6.27;1.93;;;21.90;99.90;;;;;;5092481;28;20213;-70
2022/10/20 00:38:51;;;;;;;6.80;1.70;;;22.30;99.90;;;;;;5090263;28;20593;-70
2022/10/20 00:41:20;;;;;;;6.80;2.00;;;22.50;99.90;;;;;;5072158;28;20621;-71
2022/10/20 00:43:56;;;;;;;5.93;1.70;;;22.70;99.90;;;;;;5078260;28;20603;-70
2022/10/20 00:46:43;;;;;;;6.33;2.00;;;22.60;99.90;;;;;;5092459;28;20579;-70
2022/10/20 00:49:22;;;;;;;4.97;2.40;;;22.70;99.90;;;;;;5087401;28;20172;-70
2022/10/20 00:51:53;;;;;;;7.23;1.93;;;22.80;99.90;;;;;;5072126;28;20667;-70
2022/10/20 00:54:25;;;;;;;7.20;2.03;;;22.60;99.90;;;;;;5072790;28;20179;-71
2022/10/20 00:56:55;;;;;;;5.77;1.77;;;22.50;99.90;;;;;;5092239;28;20613;-70
2022/10/20 00:59:27;;;;;;;10.90;2.40;;;22.50;99.90;;;;;;5091115;28;20175;-71
2022/10/20 01:01:55;;;;;;;8.80;2.10;;;22.70;99.90;;;;;;5090683;28;20226;-71
2022/10/20 01:04:25;;;;;;;4.13;1.60;;;23.00;99.90;;;;;;5091359;28;20187;-70
2022/10/20 01:06:52;;;;;;;9.77;1.90;;;23.50;99.90;;;;;;5090772;28;20757;-71
2022/10/20 01:09:20;;;;;;;7.87;1.93;;;23.70;99.90;;;;;;5086337;28;20185;-70
2022/10/20 01:12:19;;;;;;;7.30;1.70;;;23.90;99.90;;;;;;5052293;28;20188;-70
2022/10/20 01:14:54;;;;;;;7.93;2.10;;;24.10;99.90;;;;;;5070968;28;20179;-71
2022/10/20 01:17:39;;;;;;;6.60;1.90;;;24.00;99.90;;;;;;5071916;28;20257;-71
2022/10/20 01:20:23;;;;;;;6.13;2.00;;;23.90;99.90;;;;;;5065704;28;20194;-70
2022/10/20 01:23:15;;;;;;;5.37;1.63;;;23.50;99.90;;;;;;5091888;28;20190;-70
2022/10/20 01:26:13;;;;;;;4.50;1.87;;;23.40;99.90;;;;;;5096826;28;20190;-72
2022/10/20 01:28:57;;;;;;;7.07;1.97;;;23.40;99.90;;;;;;5093011;28;20559;-72
2022/10/20 01:31:30;;;;;;;10.43;2.07;;;23.40;99.90;;;;;;5072777;28;20202;-70
2022/10/20 01:34:18;;;;;;;7.77;2.07;;;23.30;99.90;;;;;;5075653;28;20172;-71
2022/10/20 01:36:57;;;;;;;3.83;1.90;;;23.20;99.90;;;;;;5071550;28;20221;-70
2022/10/20 01:39:34;;;;;;;6.53;1.80;;;23.20;99.90;;;;;;5076469;28;20178;-70
2022/10/20 01:42:07;;;;;;;5.87;1.70;;;23.10;99.90;;;;;;5091586;28;20179;-70
2022/10/20 01:44:36;;;;;;;3.83;1.80;;;23.10;99.90;;;;;;5091424;28;20167;-70
2022/10/20 01:47:05;;;;;;;5.27;1.80;;;23.00;99.90;;;;;;5091639;28;20189;-70
2022/10/20 01:49:32;;;;;;;5.33;1.90;;;22.90;99.90;;;;;;5066687;28;20594;-70
2022/10/20 01:52:00;;;;;;;3.73;1.90;;;23.00;99.90;;;;;;5071372;28;20240;-70
2022/10/20 01:54:29;;;;;;;5.73;1.83;;;22.90;99.90;;;;;;5071120;28;20184;-72
2022/10/20 01:57:31;;;;;;;7.50;1.87;;;22.80;99.90;;;;;;5082378;28;20210;-71
2022/10/20 02:00:10;;;;;;;6.93;2.13;;;22.70;99.90;;;;;;5069785;28;20229;-70
2022/10/20 02:02:49;;;;;;;7.40;1.80;;;22.50;99.90;;;;;;5054707;28;20180;-73
2022/10/20 02:05:40;;;;;;;4.93;1.90;;;22.40;99.90;;;;;;5072895;28;20184;-73
2022/10/20 02:08:29;;;;;;;5.53;1.70;;;22.30;99.90;;;;;;5072786;28;20172;-68
2022/10/20 02:11:00;;;;;;;4.73;1.70;;;22.30;99.90;;;;;;5072603;28;20273;-71
2022/10/20 02:13:30;;;;;;;8.03;2.10;;;22.20;99.90;;;;;;5072820;28;20507;-69
2022/10/20 02:16:04;;;;;;;3.10;1.60;;;22.10;99.90;;;;;;5054664;28;20630;-71
2022/10/20 02:18:36;;;;;;;4.57;2.17;;;22.10;99.90;;;;;;5072422;28;20685;-71
2022/10/20 02:21:05;;;;;;;5.17;2.07;;;22.00;99.90;;;;;;5077086;28;20635;-71
2022/10/20 02:23:38;;;;;;;5.37;2.13;;;21.90;99.90;;;;;;5092906;28;20181;-69
2022/10/20 02:26:15;;;;;;;6.90;2.40;;;21.80;99.90;;;;;;5095319;28;20179;-69
2022/10/20 02:28:47;;;;;;;5.40;2.40;;;21.70;99.90;;;;;;5096204;28;20187;-71
2022/10/20 02:31:16;;;;;;;7.80;2.40;;;21.50;99.90;;;;;;5088547;28;20273;-72
2022/10/20 02:33:45;;;;;;;7.10;2.80;;;21.50;99.90;;;;;;5081556;28;20187;-75
2022/10/20 02:36:17;;;;;;;7.27;2.57;;;21.50;99.90;;;;;;5095519;28;20171;-71
2022/10/20 02:38:45;;;;;;;6.40;3.03;;;21.60;99.90;;;;;;5096275;28;20244;-71
2022/10/20 02:41:13;;;;;;;9.13;3.00;;;21.60;99.90;;;;;;5095986;28;20177;-71
2022/10/20 02:43:41;;;;;;;9.93;3.03;;;21.60;99.90;;;;;;5077850;28;20187;-71
2022/10/20 02:46:09;;;;;;;7.53;3.17;;;21.70;99.90;;;;;;5095857;28;20200;-77
2022/10/20 02:48:37;;;;;;;6.63;2.93;;;21.60;99.90;;;;;;5096246;28;20211;-71
2022/10/20 02:51:08;;;;;;;6.60;3.00;;;21.60;99.90;;;;;;5095184;28;20170;-70
2022/10/20 02:53:36;;;;;;;6.40;2.80;;;21.60;99.90;;;;;;5095511;28;20209;-71
2022/10/20 02:56:04;;;;;;;10.70;2.83;;;21.40;99.90;;;;;;5095764;28;20167;-77
2022/10/20 02:58:32;;;;;;;6.00;3.00;;;21.30;99.90;;;;;;5095836;28;20211;-71
2022/10/20 03:01:01;;;;;;;7.33;3.10;;;21.20;99.90;;;;;;5094996;28;20282;-71
2022/10/20 03:03:29;;;;;;;9.07;3.50;;;21.10;99.90;;;;;;5092844;28;20200;-70
2022/10/20 03:05:56;;;;;;;12.13;4.03;;;21.00;99.90;;;;;;5095206;28;20233;-71
2022/10/20 03:08:24;;;;;;;8.47;3.67;;;20.90;99.90;;;;;;5095701;28;20229;-70
2022/10/20 03:10:52;;;;;;;13.00;4.23;;;20.90;99.90;;;;;;5095582;28;20646;-70
2022/10/20 03:13:20;;;;;;;12.30;3.90;;;20.90;99.90;;;;;;5095353;28;20235;-72
2022/10/20 03:15:47;;;;;;;6.27;3.40;;;20.90;99.90;;;;;;5076645;28;20645;-70
2022/10/20 03:18:15;;;;;;;8.60;3.43;;;21.00;99.90;;;;;;5095404;28;20676;-74
2022/10/20 03:20:44;;;;;;;12.60;3.90;;;21.10;99.90;;;;;;5095671;28;20175;-71
2022/10/20 03:23:11;;;;;;;9.23;4.03;;;21.30;99.90;;;;;;5095307;28;20247;-70
2022/10/20 03:25:39;;;;;;;6.50;4.00;;;21.40;99.90;;;;;;5094683;28;20262;-70
2022/10/20 03:28:07;;;;;;;8.17;4.03;;;21.60;99.90;;;;;;5095348;28;20168;-70
2022/10/20 03:30:35;;;;;;;10.00;4.07;;;21.80;99.90;;;;;;5095386;28;20183;-70
2022/10/20 03:33:02;;;;;;;9.87;4.03;;;21.90;99.90;;;;;;5095441;28;20534;-71
2022/10/20 03:35:30;;;;;;;7.97;4.20;;;22.10;99.90;;;;;;5095202;28;20655;-70
2022/10/20 03:37:58;;;;;;;6.07;3.57;;;22.20;99.90;;;;;;5094332;28;20214;-70
2022/10/20 03:40:26;;;;;;;6.23;3.00;;;22.30;99.90;;;;;;5095460;28;20213;-70
2022/10/20 03:42:53;;;;;;;7.97;3.13;;;22.30;99.90;;;;;;5078478;28;20223;-69
2022/10/20 03:45:21;;;;;;;3.77;2.10;;;22.30;99.90;;;;;;5075578;28;20191;-71
2022/10/20 03:47:49;;;;;;;5.63;2.03;;;22.20;99.90;;;;;;5095004;28;20539;-70
2022/10/20 03:50:17;;;;;;;3.77;2.10;;;22.00;99.90;;;;;;5094864;28;20171;-70
2022/10/20 03:52:47;;;;;;;2.17;1.40;;;21.90;99.90;;;;;;5094940;28;20175;-70
2022/10/20 03:55:18;;;;;;;2.57;1.70;;;21.80;99.90;;;;;;5094880;28;20654;-74
2022/10/20 03:57:46;;;;;;;2.50;2.10;;;21.70;99.90;;;;;;5094975;28;20673;-71
2022/10/20 04:00:15;;;;;;;4.27;2.10;;;21.90;99.90;;;;;;5094473;28;20222;-70
2022/10/20 04:02:46;;;;;;;3.53;1.80;;;22.00;99.90;;;;;;5094741;28;20580;-70
2022/10/20 04:05:16;;;;;;;4.03;1.40;;;22.00;99.90;;;;;;5076854;28;20212;-70
2022/10/20 04:07:45;;;;;;;2.07;1.30;;;22.00;99.90;;;;;;5094410;28;20209;-71
2022/10/20 04:10:14;;;;;;;2.73;1.00;;;22.10;99.90;;;;;;5094655;28;20171;-75
2022/10/20 04:12:42;;;;;;;7.30;1.53;;;22.20;99.90;;;;;;5076482;28;20175;-74
2022/10/20 04:15:11;;;;;;;2.73;1.43;;;22.20;99.90;;;;;;5094331;28;20175;-71
2022/10/20 04:17:39;;;;;;;4.90;1.40;;;22.20;99.90;;;;;;5094405;28;20242;-76
2022/10/20 04:20:07;;;;;;;1.47;1.03;;;22.10;99.90;;;;;;5076252;28;20183;-71
2022/10/20 04:22:35;;;;;;;3.60;1.00;;;22.00;99.90;;;;;;5094394;28;20632;-72
2022/10/20 04:25:03;;;;;;;2.13;1.10;;;21.90;99.90;;;;;;5094256;28;20170;-71
2022/10/20 04:27:31;;;;;;;2.57;1.20;;;21.90;99.90;;;;;;5094098;28;20202;-71
2022/10/20 04:29:58;;;;;;;1.50;1.00;;;22.00;99.90;;;;;;5094486;28;20176;-71
2022/10/20 04:32:28;;;;;;;2.13;1.07;;;21.90;99.90;;;;;;5093167;28;20189;-71
2022/10/20 04:34:56;;;;;;;3.17;0.87;;;21.80;99.90;;;;;;5094181;28;20644;-75
2022/10/20 04:37:23;;;;;;;3.17;1.00;;;21.70;99.90;;;;;;5093751;28;20242;-71
2022/10/20 04:39:51;;;;;;;3.60;1.30;;;21.60;99.90;;;;;;5093812;28;20231;-70
2022/10/20 04:42:20;;;;;;;4.20;1.00;;;21.70;99.90;;;;;;5093962;28;20654;-70
2022/10/20 04:44:48;;;;;;;6.47;1.57;;;21.60;99.90;;;;;;5075233;28;20234;-74
2022/10/20 04:47:15;;;;;;;6.07;1.67;;;21.70;99.90;;;;;;5093533;28;20649;-71
2022/10/20 04:49:43;;;;;;;4.43;1.20;;;21.60;99.90;;;;;;5093603;28;20237;-71
2022/10/20 04:52:11;;;;;;;2.93;1.40;;;21.50;99.90;;;;;;5093792;28;20254;-71
2022/10/20 04:54:39;;;;;;;4.10;1.57;;;21.60;99.90;;;;;;5093713;28;20206;-70
2022/10/20 04:57:08;;;;;;;3.37;1.30;;;21.70;99.90;;;;;;5093811;28;20207;-71
2022/10/20 04:59:36;;;;;;;2.40;1.10;;;21.70;99.90;;;;;;5070106;28;20520;-74
2022/10/20 05:02:04;;;;;;;1.80;1.00;;;21.80;99.90;;;;;;5081982;28;20198;-74
2022/10/20 05:04:31;;;;;;;3.47;1.63;;;21.80;99.90;;;;;;5074909;28;20179;-74
2022/10/20 05:06:59;;;;;;;6.50;1.47;;;21.90;99.90;;;;;;5092743;28;20234;-73
2022/10/20 05:09:27;;;;;;;5.80;1.73;;;22.00;99.90;;;;;;5092944;28;20175;-75
2022/10/20 05:11:55;;;;;;;4.07;1.83;;;22.00;99.90;;;;;;5093799;28;20317;-75
2022/10/20 05:14:22;;;;;;;5.50;1.10;;;22.10;99.90;;;;;;5073885;28;20180;-75
2022/10/20 05:16:51;;;;;;;3.57;1.33;;;22.00;99.90;;;;;;5073258;28;20207;-74
2022/10/20 05:19:18;;;;;;;7.37;1.27;;;21.90;99.90;;;;;;5071680;28;20712;-74
2022/10/20 05:21:46;;;;;;;4.27;1.87;;;21.80;99.90;;;;;;5072766;28;20179;-75
2022/10/20 05:24:16;;;;;;;3.53;1.20;;;21.80;99.90;;;;;;5090563;28;20272;-75
2022/10/20 05:26:44;;;;;;;5.43;1.23;;;21.80;99.90;;;;;;5093144;28;20175;-74
2022/10/20 05:29:12;;;;;;;7.77;1.33;;;21.80;99.90;;;;;;5092971;28;20240;-74
2022/10/20 05:31:42;;;;;;;4.40;1.30;;;21.80;99.90;;;;;;5093870;28;20183;-74
2022/10/20 05:34:11;;;;;;;4.67;1.50;;;21.80;99.90;;;;;;5076241;28;20313;-74
2022/10/20 05:36:39;;;;;;;5.93;1.53;;;21.70;99.90;;;;;;5073118;28;20238;-75
2022/10/20 05:39:07;;;;;;;4.53;1.30;;;21.70;99.90;;;;;;5081179;28;20632;-75
2022/10/20 05:41:35;;;;;;;4.67;1.23;;;21.70;99.90;;;;;;5091329;28;20175;-75
2022/10/20 05:44:05;;;;;;;7.23;1.50;;;21.70;99.90;;;;;;5081151;28;20187;-74
2022/10/20 05:46:37;;;;;;;4.70;1.17;;;21.60;99.90;;;;;;5093080;28;20192;-74
2022/10/20 05:49:04;;;;;;;3.90;1.57;;;21.50;99.90;;;;;;5092882;28;20257;-74
2022/10/20 05:51:35;;;;;;;1.80;1.00;;;21.50;99.90;;;;;;5077708;28;20188;-75
2022/10/20 05:54:04;;;;;;;3.73;1.13;;;21.50;99.90;;;;;;5093184;28;20182;-75
2022/10/20 05:56:33;;;;;;;6.03;1.40;;;21.50;99.90;;;;;;5090968;28;20215;-74
2022/10/20 05:59:00;;;;;;;5.97;1.80;;;21.50;99.90;;;;;;5082106;28;20289;-74
2022/10/20 06:01:46;;;;;;;3.67;1.17;;;21.60;99.90;;;;;;5093070;28;20595;-75
2022/10/20 06:04:16;;;;;;;5.70;1.40;;;21.60;99.90;;;;;;5077270;28;20175;-75
2022/10/20 06:06:44;;;;;;;6.27;1.47;;;21.50;99.90;;;;;;5079039;28;20769;-74
2022/10/20 06:09:12;;;;;;;2.90;1.17;;;21.40;99.90;;;;;;5076634;28;20188;-75
2022/10/20 06:11:43;;;;;;;3.20;1.30;;;21.40;99.90;;;;;;5080546;28;20193;-75
2022/10/20 06:14:11;;;;;;;3.27;1.20;;;21.40;99.90;;;;;;5076899;28;20178;-75
2022/10/20 06:16:39;;;;;;;2.23;0.90;;;21.30;99.90;;;;;;5076865;28;20179;-75
2022/10/20 06:19:07;;;;;;;3.03;0.97;;;21.30;99.90;;;;;;5076424;28;20216;-75
2022/10/20 06:21:36;;;;;;;2.47;0.90;;;21.30;99.90;;;;;;5063206;28;20526;-75
2022/10/20 06:24:06;;;;;;;3.17;0.93;;;21.30;99.90;;;;;;5096003;28;20182;-74
2022/10/20 06:26:37;;;;;;;3.30;0.87;;;21.30;99.90;;;;;;5096467;28;20594;-74
2022/10/20 06:29:11;;;;;;;3.13;0.80;;;21.30;99.90;;;;;;5083522;28;20219;-74
2022/10/20 06:31:42;;;;;;;2.97;0.73;;;21.30;99.90;;;;;;5082149;28;20263;-74
2022/10/20 06:34:13;;;;;;;4.37;1.10;;;21.20;99.90;;;;;;5078322;28;20180;-74
2022/10/20 06:36:42;;;;;;;1.60;0.93;;;21.30;99.90;;;;;;5079133;28;20278;-74
2022/10/20 06:39:13;;;;;;;3.00;1.33;;;21.20;99.90;;;;;;5094667;28;20203;-74
2022/10/20 06:41:42;;;;;;;3.43;1.00;;;21.10;99.90;;;;;;5089990;28;20179;-74
2022/10/20 06:44:10;;;;;;;2.03;0.93;;;21.10;99.90;;;;;;5076257;28;20188;-75
2022/10/20 06:46:37;;;;;;;3.17;1.30;;;21.10;99.90;;;;;;5079334;28;20175;-75
2022/10/20 06:49:07;;;;;;;5.60;1.33;;;21.10;99.90;;;;;;5096236;28;20232;-74
2022/10/20 06:51:36;;;;;;;6.77;1.00;;;21.10;99.90;;;;;;5090741;28;20176;-74
2022/10/20 06:54:05;;;;;;;2.37;1.03;;;21.00;99.90;;;;;;5075835;28;20188;-73
2022/10/20 06:56:34;;;;;;;1.80;1.10;;;21.10;99.90;;;;;;5075707;28;20664;-74
2022/10/20 06:59:03;;;;;;;4.00;1.03;;;21.10;99.90;;;;;;5058124;28;20273;-74
2022/10/20 07:01:33;;;;;;;4.77;1.30;;;21.00;99.90;;;;;;5076643;28;20233;-74
2022/10/20 07:04:04;;;;;;;2.13;1.10;;;21.00;99.90;;;;;;5075743;28;20548;-74
2022/10/20 07:06:35;;;;;;;3.20;0.97;;;21.00;99.90;;;;;;5075754;28;20186;-74
2022/10/20 07:09:07;;;;;;;4.17;1.40;;;21.00;99.90;;;;;;5057563;28;20560;-74
2022/10/20 07:11:34;;;;;;;4.07;1.47;;;21.00;99.90;;;;;;5082409;28;20587;-73
2022/10/20 07:14:03;;;;;;;3.03;1.23;;;20.90;99.90;;;;;;5095549;28;20183;-74
2022/10/20 07:16:34;;;;;;;5.47;2.07;;;20.90;99.90;;;;;;5095498;28;20179;-74
2022/10/20 07:19:03;;;;;;;3.80;1.30;;;20.90;99.90;;;;;;5095570;28;20185;-74
2022/10/20 07:21:32;;;;;;;3.67;1.40;;;20.90;99.90;;;;;;5087673;28;20184;-75
2022/10/20 07:24:03;;;;;;;5.53;1.43;;;20.80;99.90;;;;;;5075108;28;20230;-75
2022/10/20 07:26:33;;;;;;;4.13;1.90;;;20.80;99.90;;;;;;5075124;28;20574;-75
2022/10/20 07:29:02;;;;;;;4.00;1.23;;;20.90;99.90;;;;;;5074962;28;20264;-75
2022/10/20 07:31:43;;;;;;;4.37;1.30;;;20.80;99.90;;;;;;5082216;28;20217;-74
2022/10/20 07:34:12;;;;;;;4.10;1.40;;;20.80;99.90;;;;;;5095120;28;20167;-74
2022/10/20 07:36:42;;;;;;;6.23;1.40;;;20.80;99.90;;;;;;5076599;28;20265;-75
2022/10/20 07:39:12;;;;;;;4.77;1.50;;;20.70;99.90;;;;;;5074825;28;20263;-74
2022/10/20 07:41:42;;;;;;;6.50;1.47;;;20.70;99.90;;;;;;5083249;28;20275;-75
2022/10/20 07:44:10;;;;;;;5.67;1.47;;;20.70;99.90;;;;;;5094901;28;20267;-74
2022/10/20 07:46:38;;;;;;;4.93;1.50;;;20.70;99.90;;;;;;5095090;28;20257;-75
2022/10/20 07:49:06;;;;;;;5.23;1.20;;;20.70;99.90;;;;;;5074314;28;20234;-75
2022/10/20 07:51:34;;;;;;;6.57;1.70;;;20.60;99.90;;;;;;5079357;28;20177;-74
2022/10/20 07:54:05;;;;;;;3.97;1.40;;;20.60;99.90;;;;;;5087541;28;20189;-75
2022/10/20 07:56:36;;;;;;;6.43;1.47;;;20.60;99.90;;;;;;5081328;28;20180;-75
2022/10/20 07:59:04;;;;;;;8.27;1.60;;;20.60;99.90;;;;;;5074741;28;20234;-74
2022/10/20 08:01:33;;;;;;;4.43;1.37;;;20.60;99.90;;;;;;5080108;28;20713;-74
2022/10/20 08:04:01;;;;;;;3.90;1.27;;;20.60;99.90;;;;;;5094691;28;20618;-75
2022/10/20 08:06:29;;;;;;;7.33;1.43;;;20.60;99.90;;;;;;5090878;28;20198;-74
2022/10/20 08:08:56;;;;;;;5.17;1.70;;;20.50;99.90;;;;;;5071760;28;20171;-75
2022/10/20 08:11:24;;;;;;;6.03;1.63;;;20.50;99.90;;;;;;5077631;28;20179;-74
2022/10/20 08:13:52;;;;;;;4.43;1.80;;;20.50;99.90;;;;;;5092961;28;20688;-75
2022/10/20 08:16:20;;;;;;;2.97;1.40;;;20.50;99.90;;;;;;5092333;28;20189;-75
2022/10/20 08:18:48;;;;;;;3.30;1.50;;;20.50;99.90;;;;;;5092586;28;20223;-75
2022/10/20 08:21:19;;;;;;;5.87;1.33;;;20.50;99.90;;;;;;5091048;28;20198;-76
2022/10/20 08:23:48;;;;;;;2.87;1.20;;;20.50;99.90;;;;;;5072223;28;20175;-75
2022/10/20 08:26:22;;;;;;;4.87;1.60;;;20.50;99.90;;;;;;5080175;28;20551;-76
2022/10/20 08:28:51;;;;;;;5.70;1.73;;;20.50;99.90;;;;;;5092733;28;20180;-73
2022/10/20 08:31:19;;;;;;;7.83;1.80;;;20.50;99.90;;;;;;5086199;28;20241;-74
2022/10/20 08:33:47;;;;;;;4.67;1.50;;;20.50;99.90;;;;;;5101263;28;20194;-75
2022/10/20 08:36:15;;;;;;;5.17;1.77;;;20.50;99.90;;;;;;5098753;28;20527;-74
2022/10/20 08:38:43;;;;;;;2.07;1.20;;;20.40;99.90;;;;;;5093816;28;20213;-74
2022/10/20 08:41:22;;;;;;;4.87;1.47;;;20.40;99.90;;;;;;5087975;28;20179;-74
2022/10/20 08:43:52;;;;;;;3.00;1.50;;;20.30;99.90;;;;;;5072598;28;20172;-74
2022/10/20 08:46:24;;;;;;;4.33;1.43;;;20.40;99.90;;;;;;5054306;28;20234;-74
2022/10/20 08:48:52;;;;;;;5.93;1.70;;;20.40;99.90;;;;;;5073903;28;20202;-74
2022/10/20 08:51:23;;;;;;;4.70;1.70;;;20.30;99.90;;;;;;5089658;28;20674;-74
2022/10/20 08:53:54;;;;;;;2.73;1.70;;;20.30;99.90;;;;;;5091712;28;20189;-75
2022/10/20 08:56:26;;;;;;;4.27;1.70;;;20.30;99.90;;;;;;5072177;28;20931;-75
2022/10/20 08:58:55;;;;;;;3.63;1.63;;;20.30;99.90;;;;;;5081664;28;20191;-74
2022/10/20 09:01:29;;;;;;;5.90;1.70;;;20.30;99.90;;;;;;5060647;28;20241;-74
2022/10/20 09:04:02;;;;;;;5.03;1.67;;;20.30;99.90;;;;;;5092130;28;20172;-74
2022/10/20 09:06:30;;;;;;;3.77;1.73;;;20.30;99.90;;;;;;5092237;28;20267;-75
2022/10/20 09:08:59;;;;;;;4.90;1.90;;;20.30;99.90;;;;;;5076948;28;20191;-75
2022/10/20 09:11:39;;;;;;;5.43;1.63;;;20.30;99.90;;;;;;5079833;28;20215;-75
2022/10/20 09:14:10;;;;;;;3.77;1.47;;;20.20;99.90;;;;;;5073652;28;20178;-74
2022/10/20 09:16:40;;;;;;;6.07;1.70;;;20.30;99.90;;;;;;5091812;28;20229;-75
2022/10/20 09:19:18;;;;;;;7.03;1.60;;;20.30;99.90;;;;;;5091945;28;20184;-75
2022/10/20 09:21:51;;;;;;;2.80;1.67;;;20.20;99.90;;;;;;5061414;28;20275;-75
2022/10/20 09:24:21;;;;;;;3.67;1.90;;;20.20;99.90;;;;;;5071943;28;20172;-74
2022/10/20 09:26:51;;;;;;;4.27;1.70;;;20.20;99.90;;;;;;5087402;28;20219;-75
2022/10/20 09:29:33;;;;;;;6.53;2.20;;;20.20;99.90;;;;;;5073105;28;20276;-74
2022/10/20 09:32:01;;;;;;;6.10;1.67;;;20.20;99.90;;;;;;5077507;28;20192;-74
2022/10/20 09:34:34;;;;;;;3.50;1.30;;;20.20;99.90;;;;;;5070853;28;20179;-74
2022/10/20 09:37:07;;;;;;;5.67;1.90;;;20.10;99.90;;;;;;5071495;28;20567;-74
2022/10/20 09:39:49;;;;;;;5.70;1.87;;;20.10;99.90;;;;;;5074974;28;20183;-75
2022/10/20 09:42:20;;;;;;;4.20;1.70;;;20.10;99.90;;;;;;5075458;28;20645;-75
2022/10/20 09:44:51;;;;;;;4.47;1.50;;;20.10;99.90;;;;;;5053495;28;20207;-75
2022/10/20 09:47:22;;;;;;;6.73;2.00;;;20.10;99.90;;;;;;5053146;28;20261;-75
2022/10/20 09:49:57;;;;;;;7.00;1.90;;;20.10;99.90;;;;;;5068594;28;20198;-74
2022/10/20 09:52:39;;;;;;;4.63;1.80;;;20.00;99.90;;;;;;5075004;28;20278;-75
2022/10/20 09:55:31;;;;;;;4.43;1.90;;;20.00;99.90;;;;;;5071292;28;20661;-75
2022/10/20 09:58:02;;;;;;;3.30;1.80;;;20.00;99.90;;;;;;5062395;28;20282;-76
2022/10/20 10:00:43;;;;;;;3.13;1.53;;;20.00;99.90;;;;;;5072106;28;20235;-74
2022/10/20 10:03:22;;;;;;;4.17;1.90;;;20.00;99.90;;;;;;5071047;28;20180;-74
2022/10/20 10:05:56;;;;;;;5.53;1.70;;;20.00;99.90;;;;;;5070984;28;20219;-74
2022/10/20 10:08:40;;;;;;;4.13;2.10;;;20.00;99.90;;;;;;5055836;28;20340;-75
2022/10/20 10:11:19;;;;;;;4.30;1.60;;;20.00;99.90;;;;;;5091592;28;20215;-73
2022/10/20 10:13:50;;;;;;;4.20;2.00;;;20.00;99.90;;;;;;5092956;28;20560;-74
2022/10/20 10:16:21;;;;;;;6.93;2.10;;;20.00;99.90;;;;;;5086260;28;20179;-74
2022/10/20 10:19:01;;;;;;;4.53;2.00;;;20.00;99.90;;;;;;5075105;28;20690;-74
2022/10/20 10:21:42;;;;;;;5.40;2.10;;;20.00;99.90;;;;;;5084064;28;20185;-74
2022/10/20 10:24:34;;;;;;;7.47;2.53;;;20.00;99.90;;;;;;5092796;28;20224;-74
2022/10/20 10:27:02;;;;;;;7.83;1.70;;;20.00;99.90;;;;;;5092853;28;20607;-75
2022/10/20 10:29:37;;;;;;;8.70;2.27;;;20.00;99.90;;;;;;5055169;28;20279;-75
2022/10/20 10:32:26;;;;;;;6.53;2.33;;;20.10;99.90;;;;;;5072779;28;20254;-74
2022/10/20 10:35:15;;;;;;;7.37;2.27;;;20.10;99.90;;;;;;5054929;28;20566;-73
2022/10/20 10:37:45;;;;;;;8.53;2.97;;;20.10;99.90;;;;;;5072804;28;20199;-73
2022/10/20 10:40:18;;;;;;;5.80;2.27;;;20.20;99.90;;;;;;5085793;28;20266;-73
2022/10/20 10:43:28;;;;;;;6.47;2.70;;;20.10;99.90;;;;;;5092664;28;20253;-74
2022/10/20 10:46:12;;;;;;;7.90;2.17;;;20.10;99.90;;;;;;5092107;28;20240;-74
2022/10/20 10:48:49;;;;;;;8.20;2.27;;;20.20;99.90;;;;;;5096390;28;20186;-73
2022/10/20 10:51:51;;;;;;;6.27;2.20;;;20.20;99.90;;;;;;5096686;28;20265;-73
2022/10/20 10:54:43;;;;;;;6.97;2.40;;;20.20;99.90;;;;;;5042398;28;20189;-74
2022/10/20 10:57:30;;;;;;;7.37;2.30;;;20.20;99.90;;;;;;5076008;28;20708;-74
2022/10/20 11:00:09;;;;;;;5.90;2.20;;;20.10;99.90;;;;;;5075663;28;20231;-74
2022/10/20 11:03:03;;;;;;;4.30;2.43;;;20.10;99.90;;;;;;5075943;28;20204;-74
2022/10/20 11:05:49;;;;;;;4.30;2.30;;;20.10;99.90;;;;;;5075693;28;20176;-74
2022/10/20 11:08:25;;;;;;;6.03;2.73;;;20.10;99.90;;;;;;5076236;28;20172;-74
2022/10/20 11:11:05;;;;;;;5.47;2.30;;;20.10;99.90;;;;;;5076356;28;20172;-74
2022/10/20 11:13:36;;;;;;;7.67;2.60;;;20.10;99.90;;;;;;5075474;28;20711;-74
2022/10/20 11:16:19;;;;;;;3.50;2.33;;;20.10;99.90;;;;;;5076140;28;20202;-74
2022/10/20 11:19:06;;;;;;;6.50;2.47;;;20.10;99.90;;;;;;5075893;28;20223;-74
2022/10/20 11:21:55;;;;;;;5.40;2.30;;;20.10;99.90;;;;;;5081520;28;20181;-74
2022/10/20 11:24:32;;;;;;;6.50;2.47;;;20.10;99.90;;;;;;5087847;28;20176;-74
2022/10/20 11:27:27;;;;;;;6.27;2.57;;;20.10;99.90;;;;;;5075691;28;20624;-74
2022/10/20 11:30:14;;;;;;;7.97;2.47;;;20.00;99.90;;;;;;5066040;28;20274;-74
2022/10/20 11:33:11;;;;;;;10.83;2.60;;;20.00;99.90;;;;;;5075336;28;20191;-74
2022/10/20 11:35:44;;;;;;;9.00;2.70;;;20.00;99.90;;;;;;5067159;28;20273;-74
2022/10/20 11:38:21;;;;;;;6.87;2.40;;;20.00;99.90;;;;;;5075128;28;20208;-75
2022/10/20 11:41:08;;;;;;;6.87;2.17;;;20.00;99.90;;;;;;5083319;28;20171;-74
2022/10/20 11:43:59;;;;;;;7.43;2.43;;;20.00;99.90;;;;;;5075095;28;20228;-74
2022/10/20 11:46:38;;;;;;;6.03;2.30;;;20.00;99.90;;;;;;5056822;28;20559;-74
2022/10/20 11:49:07;;;;;;;5.37;2.50;;;20.00;99.90;;;;;;5075324;28;20660;-74
2022/10/20 11:51:50;;;;;;;6.50;2.30;;;20.00;99.90;;;;;;5079332;28;20187;-74
2022/10/20 11:54:38;;;;;;;7.57;2.63;;;20.00;99.90;;;;;;5093416;28;20706;-75
2022/10/20 11:57:41;;;;;;;7.50;2.40;;;19.90;99.90;;;;;;5095163;28;20608;-75
2022/10/20 12:00:45;;;;;;;14.33;2.70;;;19.90;99.90;;;;;;5094839;28;20312;-75
2022/10/20 12:03:26;;;;;;;8.60;2.57;;;19.90;99.90;;;;;;5076014;28;20237;-74
2022/10/20 12:06:27;;;;;;;11.70;3.13;;;19.90;99.90;;;;;;5074453;28;20174;-74
2022/10/20 12:09:21;;;;;;;13.17;3.37;;;19.90;99.90;;;;;;5075729;28;20194;-75
2022/10/20 12:11:55;;;;;;;5.47;2.77;;;19.90;99.90;;;;;;5080285;28;20190;-73
2022/10/20 12:14:44;;;;;;;13.80;3.67;;;19.90;99.90;;;;;;5094906;28;20266;-75
2022/10/20 12:17:29;;;;;;;13.13;3.40;;;19.90;99.90;;;;;;5094253;28;20201;-75
2022/10/20 12:20:21;;;;;;;12.13;3.27;;;19.90;99.90;;;;;;5094559;28;20224;-74
2022/10/20 12:22:52;;;;;;;9.77;3.37;;;19.90;99.90;;;;;;5080046;28;20719;-73
2022/10/20 12:25:37;;;;;;;8.50;3.30;;;19.90;99.90;;;;;;5074109;28;20176;-73
2022/10/20 12:28:23;;;;;;;9.60;3.67;;;19.90;99.90;;;;;;5074187;28;20199;-74
2022/10/20 12:31:05;;;;;;;6.57;3.43;;;19.90;99.90;;;;;;5074062;28;20186;-73
2022/10/20 12:33:41;;;;;;;6.03;3.23;;;19.90;99.90;;;;;;5093910;28;20179;-74
2022/10/20 12:36:18;;;;;;;6.97;3.30;;;19.80;99.90;;;;;;5073534;28;20179;-74
2022/10/20 12:39:11;;;;;;;6.57;3.00;;;19.80;99.90;;;;;;5074045;28;20239;-74
2022/10/20 12:41:57;;;;;;;5.60;3.10;;;19.80;99.90;;;;;;5079697;28;20266;-74
2022/10/20 12:44:27;;;;;;;3.50;2.83;;;19.70;99.90;;;;;;5076066;28;20179;-74
2022/10/20 12:47:06;;;;;;;4.03;2.53;;;19.70;99.90;;;;;;5075843;28;20215;-74
2022/10/20 12:49:44;;;;;;;6.20;3.07;;;19.70;99.90;;;;;;5094013;28;20175;-72
2022/10/20 12:52:23;;;;;;;8.60;3.03;;;19.60;99.90;;;;;;5083341;28;20179;-73
2022/10/20 12:55:20;;;;;;;5.83;2.67;;;19.60;99.90;;;;;;5073587;28;20274;-74
2022/10/20 12:57:48;;;;;;;10.03;2.80;;;19.60;99.90;;;;;;5065906;28;20315;-74
2022/10/20 13:00:23;;;;;;;7.53;2.80;;;19.60;99.90;;;;;;5074854;28;20591;-74
2022/10/20 13:02:53;;;;;;;5.33;3.17;;;19.60;99.90;;;;;;5078122;28;20527;-74
2022/10/20 13:05:41;;;;;;;8.10;3.30;;;19.60;99.90;;;;;;5085215;28;20183;-74
2022/10/20 13:08:32;;;;;;;10.53;3.40;;;19.60;99.90;;;;;;5075525;28;20177;-74
2022/10/20 13:11:33;;;;;;;6.73;3.23;;;19.60;99.90;;;;;;5090375;28;20704;-73
2022/10/20 13:14:17;;;;;;;6.67;2.97;;;19.60;99.90;;;;;;5073455;28;20690;-74
2022/10/20 13:16:57;;;;;;;6.10;2.87;;;19.60;99.90;;;;;;5073623;28;20277;-74
2022/10/20 13:22:54;;;;;;;7.20;2.40;;;19.60;99.90;;;;;;5073686;28;20195;-74